sensor_id;sensor_type;location;lat;lon;timestamp;temperature;humidity
5164;DHT22;2601;50.224;10.126;2022-09-13T00:01:30;12.20;99.90
5164;DHT22;2601;50.224;10.126;2022-09-13T00:03:55;12.10;99.90
5164;DHT22;2601;50.224;10.126;2022-09-13T00:06:21;12.20;99.90
5164;DHT22;2601;50.224;10.126;2022-09-13T00:08:47;12.20;99.90
5164;DHT22;2601;50.224;10.126;2022-09-13T00:11:25;12.30;99.90
5164;DHT22;2601;50.224;10.126;2022-09-13T00:13:51;12.20;99.90
5164;DHT22;2601;50.224;10.126;2022-09-13T00:16:19;12.20;99.90
5164;DHT22;2601;50.224;10.126;2022-09-13T00:18:45;12.30;99.90
5164;DHT22;2601;50.224;10.126;2022-09-13T00:21:14;12.30;99.90
5164;DHT22;2601;50.224;10.126;2022-09-13T00:23:46;12.10;99.90
5164;DHT22;2601;50.224;10.126;2022-09-13T00:26:19;12.00;99.90
5164;DHT22;2601;50.224;10.126;2022-09-13T00:28:52;12.00;99.90
5164;DHT22;2601;50.224;10.126;2022-09-13T00:31:19;12.00;99.90
5164;DHT22;2601;50.224;10.126;2022-09-13T00:33:45;11.90;99.90
5164;DHT22;2601;50.224;10.126;2022-09-13T00:36:11;11.70;99.90
5164;DHT22;2601;50.224;10.126;2022-09-13T00:38:38;11.70;99.90
5164;DHT22;2601;50.224;10.126;2022-09-13T00:41:07;11.70;99.90
5164;DHT22;2601;50.224;10.126;2022-09-13T00:46:52;11.90;99.90
5164;DHT22;2601;50.224;10.126;2022-09-13T00:49:24;11.90;99.90
5164;DHT22;2601;50.224;10.126;2022-09-13T00:51:59;11.80;99.90
5164;DHT22;2601;50.224;10.126;2022-09-13T00:54:32;12.00;99.90
5164;DHT22;2601;50.224;10.126;2022-09-13T00:57:02;11.90;99.90
5164;DHT22;2601;50.224;10.126;2022-09-13T00:59:43;12.00;99.90
5164;DHT22;2601;50.224;10.126;2022-09-13T01:02:10;12.00;99.90
5164;DHT22;2601;50.224;10.126;2022-09-13T01:04:37;12.00;99.90
5164;DHT22;2601;50.224;10.126;2022-09-13T01:07:06;11.90;99.90
5164;DHT22;2601;50.224;10.126;2022-09-13T01:09:35;11.90;99.90
5164;DHT22;2601;50.224;10.126;2022-09-13T01:14:41;11.80;99.90
5164;DHT22;2601;50.224;10.126;2022-09-13T01:17:08;11.70;99.90
5164;DHT22;2601;50.224;10.126;2022-09-13T01:19:34;11.80;99.90
5164;DHT22;2601;50.224;10.126;2022-09-13T01:30:35;11.50;99.90
5164;DHT22;2601;50.224;10.126;2022-09-13T01:36:31;11.40;99.90
5164;DHT22;2601;50.224;10.126;2022-09-13T01:39:16;11.30;99.90
5164;DHT22;2601;50.224;10.126;2022-09-13T01:41:53;11.30;99.90
5164;DHT22;2601;50.224;10.126;2022-09-13T01:50:39;11.40;99.90
5164;DHT22;2601;50.224;10.126;2022-09-13T01:56:30;11.50;99.90
5164;DHT22;2601;50.224;10.126;2022-09-13T01:59:51;11.40;99.90
5164;DHT22;2601;50.224;10.126;2022-09-13T02:02:00;11.40;99.90
5164;DHT22;2601;50.224;10.126;2022-09-13T02:04:32;11.30;99.90
5164;DHT22;2601;50.224;10.126;2022-09-13T02:07:09;11.30;99.90
5164;DHT22;2601;50.224;10.126;2022-09-13T02:09:42;11.40;99.90
5164;DHT22;2601;50.224;10.126;2022-09-13T02:12:21;11.50;99.90
5164;DHT22;2601;50.224;10.126;2022-09-13T02:15:15;11.40;99.90
5164;DHT22;2601;50.224;10.126;2022-09-13T02:17:54;11.30;99.90
5164;DHT22;2601;50.224;10.126;2022-09-13T02:20:29;11.40;99.90
5164;DHT22;2601;50.224;10.126;2022-09-13T02:23:01;11.40;99.90
5164;DHT22;2601;50.224;10.126;2022-09-13T02:25:30;11.40;99.90
5164;DHT22;2601;50.224;10.126;2022-09-13T02:28:00;11.50;99.90
5164;DHT22;2601;50.224;10.126;2022-09-13T02:30:30;11.40;99.90
5164;DHT22;2601;50.224;10.126;2022-09-13T02:33:07;11.20;99.90
5164;DHT22;2601;50.224;10.126;2022-09-13T02:35:44;11.20;99.90
5164;DHT22;2601;50.224;10.126;2022-09-13T02:38:41;11.20;99.90
5164;DHT22;2601;50.224;10.126;2022-09-13T02:43:55;10.80;99.90
5164;DHT22;2601;50.224;10.126;2022-09-13T02:46:28;10.70;99.90
5164;DHT22;2601;50.224;10.126;2022-09-13T02:49:10;10.80;99.90
5164;DHT22;2601;50.224;10.126;2022-09-13T02:54:39;10.80;99.90
5164;DHT22;2601;50.224;10.126;2022-09-13T02:57:32;10.80;99.90
5164;DHT22;2601;50.224;10.126;2022-09-13T03:00:01;10.80;99.90
5164;DHT22;2601;50.224;10.126;2022-09-13T03:02:31;10.90;99.90
5164;DHT22;2601;50.224;10.126;2022-09-13T03:04:58;10.70;99.90
5164;DHT22;2601;50.224;10.126;2022-09-13T03:07:25;10.60;99.90
5164;DHT22;2601;50.224;10.126;2022-09-13T03:09:56;10.60;99.90
5164;DHT22;2601;50.224;10.126;2022-09-13T03:24:13;11.10;99.90
5164;DHT22;2601;50.224;10.126;2022-09-13T03:29:24;11.00;99.90
5164;DHT22;2601;50.224;10.126;2022-09-13T03:32:06;11.10;99.90
5164;DHT22;2601;50.224;10.126;2022-09-13T03:37:34;11.10;99.90
5164;DHT22;2601;50.224;10.126;2022-09-13T03:40:11;11.00;99.90
5164;DHT22;2601;50.224;10.126;2022-09-13T03:42:55;11.00;99.90
5164;DHT22;2601;50.224;10.126;2022-09-13T03:45:26;10.90;99.90
5164;DHT22;2601;50.224;10.126;2022-09-13T03:47:54;10.80;99.90
5164;DHT22;2601;50.224;10.126;2022-09-13T03:50:22;10.80;99.90
5164;DHT22;2601;50.224;10.126;2022-09-13T03:52:57;10.70;99.90
5164;DHT22;2601;50.224;10.126;2022-09-13T03:55:24;10.60;99.90
5164;DHT22;2601;50.224;10.126;2022-09-13T03:57:50;10.60;99.90
5164;DHT22;2601;50.224;10.126;2022-09-13T04:00:16;10.70;99.90
5164;DHT22;2601;50.224;10.126;2022-09-13T04:02:43;10.70;99.90
5164;DHT22;2601;50.224;10.126;2022-09-13T04:05:09;10.50;99.90
5164;DHT22;2601;50.224;10.126;2022-09-13T04:07:35;10.50;99.90
5164;DHT22;2601;50.224;10.126;2022-09-13T04:10:00;10.40;99.90
5164;DHT22;2601;50.224;10.126;2022-09-13T04:12:26;10.40;99.90
5164;DHT22;2601;50.224;10.126;2022-09-13T04:14:55;10.40;99.90
5164;DHT22;2601;50.224;10.126;2022-09-13T04:17:25;10.30;99.90
5164;DHT22;2601;50.224;10.126;2022-09-13T04:19:51;10.30;99.90
5164;DHT22;2601;50.224;10.126;2022-09-13T04:22:16;10.40;99.90
5164;DHT22;2601;50.224;10.126;2022-09-13T04:24:42;10.50;99.90
5164;DHT22;2601;50.224;10.126;2022-09-13T04:27:08;10.70;99.90
5164;DHT22;2601;50.224;10.126;2022-09-13T04:29:34;10.90;99.90
5164;DHT22;2601;50.224;10.126;2022-09-13T04:32:00;11.00;99.90
5164;DHT22;2601;50.224;10.126;2022-09-13T04:34:26;11.00;99.90
5164;DHT22;2601;50.224;10.126;2022-09-13T04:36:52;11.10;99.90
5164;DHT22;2601;50.224;10.126;2022-09-13T04:39:21;11.00;99.90
5164;DHT22;2601;50.224;10.126;2022-09-13T04:41:48;10.90;99.90
5164;DHT22;2601;50.224;10.126;2022-09-13T04:44:17;10.90;99.90
5164;DHT22;2601;50.224;10.126;2022-09-13T04:46:46;10.80;99.90
5164;DHT22;2601;50.224;10.126;2022-09-13T04:49:16;10.80;99.90
5164;DHT22;2601;50.224;10.126;2022-09-13T04:51:42;10.80;99.90
5164;DHT22;2601;50.224;10.126;2022-09-13T04:54:09;10.80;99.90
5164;DHT22;2601;50.224;10.126;2022-09-13T04:56:36;10.90;99.90
5164;DHT22;2601;50.224;10.126;2022-09-13T04:59:01;11.00;99.90
5164;DHT22;2601;50.224;10.126;2022-09-13T05:01:28;11.20;99.90
5164;DHT22;2601;50.224;10.126;2022-09-13T05:03:54;11.30;99.90
5164;DHT22;2601;50.224;10.126;2022-09-13T05:06:20;11.40;99.90
5164;DHT22;2601;50.224;10.126;2022-09-13T05:08:52;11.40;99.90
5164;DHT22;2601;50.224;10.126;2022-09-13T05:11:21;11.40;99.90
5164;DHT22;2601;50.224;10.126;2022-09-13T05:13:55;11.40;99.90
5164;DHT22;2601;50.224;10.126;2022-09-13T05:16:23;11.50;99.90
5164;DHT22;2601;50.224;10.126;2022-09-13T05:18:50;11.40;99.90
5164;DHT22;2601;50.224;10.126;2022-09-13T05:21:16;11.40;99.90
5164;DHT22;2601;50.224;10.126;2022-09-13T05:23:43;11.40;99.90
5164;DHT22;2601;50.224;10.126;2022-09-13T05:26:09;11.40;99.90
5164;DHT22;2601;50.224;10.126;2022-09-13T05:28:36;11.40;99.90
5164;DHT22;2601;50.224;10.126;2022-09-13T05:31:09;11.40;99.90
5164;DHT22;2601;50.224;10.126;2022-09-13T05:33:37;11.50;99.90
5164;DHT22;2601;50.224;10.126;2022-09-13T05:36:04;11.70;99.90
5164;DHT22;2601;50.224;10.126;2022-09-13T05:38:31;11.70;99.90
5164;DHT22;2601;50.224;10.126;2022-09-13T05:40:59;11.70;99.90
5164;DHT22;2601;50.224;10.126;2022-09-13T05:43:27;11.80;99.90
5164;DHT22;2601;50.224;10.126;2022-09-13T05:46:14;11.90;99.90
5164;DHT22;2601;50.224;10.126;2022-09-13T05:48:40;12.00;99.90
5164;DHT22;2601;50.224;10.126;2022-09-13T05:51:12;11.90;99.90
5164;DHT22;2601;50.224;10.126;2022-09-13T05:53:39;11.90;99.90
5164;DHT22;2601;50.224;10.126;2022-09-13T05:56:16;11.90;99.90
5164;DHT22;2601;50.224;10.126;2022-09-13T05:58:44;12.00;99.90
5164;DHT22;2601;50.224;10.126;2022-09-13T06:01:11;12.00;99.90
5164;DHT22;2601;50.224;10.126;2022-09-13T06:03:37;12.00;99.90
5164;DHT22;2601;50.224;10.126;2022-09-13T06:06:04;12.10;99.90
5164;DHT22;2601;50.224;10.126;2022-09-13T06:08:31;12.30;99.90
5164;DHT22;2601;50.224;10.126;2022-09-13T06:13:25;12.40;99.90
5164;DHT22;2601;50.224;10.126;2022-09-13T06:15:51;12.40;99.90
5164;DHT22;2601;50.224;10.126;2022-09-13T06:18:17;12.50;99.90
5164;DHT22;2601;50.224;10.126;2022-09-13T06:20:44;12.60;99.90
5164;DHT22;2601;50.224;10.126;2022-09-13T06:23:10;12.60;99.90
5164;DHT22;2601;50.224;10.126;2022-09-13T06:25:36;12.60;99.90
5164;DHT22;2601;50.224;10.126;2022-09-13T06:28:02;12.70;99.90
5164;DHT22;2601;50.224;10.126;2022-09-13T06:30:28;12.90;99.90
5164;DHT22;2601;50.224;10.126;2022-09-13T06:32:57;12.90;99.90
5164;DHT22;2601;50.224;10.126;2022-09-13T06:35:23;13.10;99.90
5164;DHT22;2601;50.224;10.126;2022-09-13T06:37:50;13.20;99.90
5164;DHT22;2601;50.224;10.126;2022-09-13T06:40:16;13.30;99.90
5164;DHT22;2601;50.224;10.126;2022-09-13T06:42:42;13.30;99.90
5164;DHT22;2601;50.224;10.126;2022-09-13T06:45:08;13.50;99.90
5164;DHT22;2601;50.224;10.126;2022-09-13T06:47:34;13.40;99.90
5164;DHT22;2601;50.224;10.126;2022-09-13T06:50:00;13.40;99.90
5164;DHT22;2601;50.224;10.126;2022-09-13T06:52:26;13.30;99.90
5164;DHT22;2601;50.224;10.126;2022-09-13T06:54:52;13.40;99.90
5164;DHT22;2601;50.224;10.126;2022-09-13T06:57:19;13.50;99.90
5164;DHT22;2601;50.224;10.126;2022-09-13T06:59:45;13.40;99.90
5164;DHT22;2601;50.224;10.126;2022-09-13T07:02:11;13.50;99.90
5164;DHT22;2601;50.224;10.126;2022-09-13T07:04:40;13.70;99.90
5164;DHT22;2601;50.224;10.126;2022-09-13T07:07:05;13.70;99.90
5164;DHT22;2601;50.224;10.126;2022-09-13T07:09:31;13.90;99.90
5164;DHT22;2601;50.224;10.126;2022-09-13T07:11:58;14.10;99.90
5164;DHT22;2601;50.224;10.126;2022-09-13T07:14:26;14.30;99.90
5164;DHT22;2601;50.224;10.126;2022-09-13T07:16:54;14.50;99.90
5164;DHT22;2601;50.224;10.126;2022-09-13T07:19:24;14.80;99.90
5164;DHT22;2601;50.224;10.126;2022-09-13T07:21:55;15.10;99.90
5164;DHT22;2601;50.224;10.126;2022-09-13T07:24:21;15.80;99.90
5164;DHT22;2601;50.224;10.126;2022-09-13T07:26:48;16.00;99.90
5164;DHT22;2601;50.224;10.126;2022-09-13T07:29:17;16.40;99.90
5164;DHT22;2601;50.224;10.126;2022-09-13T07:31:49;16.60;99.90
5164;DHT22;2601;50.224;10.126;2022-09-13T07:34:17;16.40;99.90
5164;DHT22;2601;50.224;10.126;2022-09-13T07:36:45;16.20;99.90
5164;DHT22;2601;50.224;10.126;2022-09-13T07:39:15;16.10;99.90
5164;DHT22;2601;50.224;10.126;2022-09-13T07:41:42;16.10;99.90
5164;DHT22;2601;50.224;10.126;2022-09-13T07:44:11;15.90;99.90
5164;DHT22;2601;50.224;10.126;2022-09-13T07:46:38;15.70;99.90
5164;DHT22;2601;50.224;10.126;2022-09-13T07:49:06;15.50;99.90
5164;DHT22;2601;50.224;10.126;2022-09-13T07:51:33;15.10;99.90
5164;DHT22;2601;50.224;10.126;2022-09-13T07:54:02;15.10;99.90
5164;DHT22;2601;50.224;10.126;2022-09-13T07:56:30;15.10;99.90
5164;DHT22;2601;50.224;10.126;2022-09-13T07:58:58;15.30;99.90
5164;DHT22;2601;50.224;10.126;2022-09-13T08:01:27;15.40;99.90
5164;DHT22;2601;50.224;10.126;2022-09-13T08:03:59;15.50;99.90
5164;DHT22;2601;50.224;10.126;2022-09-13T08:06:26;15.80;99.90
5164;DHT22;2601;50.224;10.126;2022-09-13T08:08:53;16.00;99.90
5164;DHT22;2601;50.224;10.126;2022-09-13T08:11:21;16.00;99.90
5164;DHT22;2601;50.224;10.126;2022-09-13T08:13:48;16.00;99.90
5164;DHT22;2601;50.224;10.126;2022-09-13T08:16:16;16.00;99.90
5164;DHT22;2601;50.224;10.126;2022-09-13T08:18:44;16.00;99.90
5164;DHT22;2601;50.224;10.126;2022-09-13T08:21:10;16.10;99.90
5164;DHT22;2601;50.224;10.126;2022-09-13T08:23:36;16.20;99.90
5164;DHT22;2601;50.224;10.126;2022-09-13T08:26:03;16.30;99.90
5164;DHT22;2601;50.224;10.126;2022-09-13T08:28:29;16.20;99.90
5164;DHT22;2601;50.224;10.126;2022-09-13T08:31:01;16.20;99.90
5164;DHT22;2601;50.224;10.126;2022-09-13T08:33:26;16.20;99.90
5164;DHT22;2601;50.224;10.126;2022-09-13T08:35:52;16.30;99.90
5164;DHT22;2601;50.224;10.126;2022-09-13T08:38:20;16.30;99.90
5164;DHT22;2601;50.224;10.126;2022-09-13T08:44:07;16.50;99.90
5164;DHT22;2601;50.224;10.126;2022-09-13T08:46:45;16.50;99.90
5164;DHT22;2601;50.224;10.126;2022-09-13T08:49:29;16.80;99.90
5164;DHT22;2601;50.224;10.126;2022-09-13T08:52:32;17.00;99.90
5164;DHT22;2601;50.224;10.126;2022-09-13T08:55:02;17.20;99.90
5164;DHT22;2601;50.224;10.126;2022-09-13T08:57:58;17.60;99.90
5164;DHT22;2601;50.224;10.126;2022-09-13T09:00:42;17.70;99.90
5164;DHT22;2601;50.224;10.126;2022-09-13T09:03:40;17.70;99.90
5164;DHT22;2601;50.224;10.126;2022-09-13T09:06:12;17.80;99.90
5164;DHT22;2601;50.224;10.126;2022-09-13T09:08:41;17.80;99.90
5164;DHT22;2601;50.224;10.126;2022-09-13T09:11:21;17.70;99.90
5164;DHT22;2601;50.224;10.126;2022-09-13T09:13:59;17.80;99.90
5164;DHT22;2601;50.224;10.126;2022-09-13T09:16:45;17.70;99.90
5164;DHT22;2601;50.224;10.126;2022-09-13T09:19:20;17.60;99.90
5164;DHT22;2601;50.224;10.126;2022-09-13T09:21:49;17.50;99.90
5164;DHT22;2601;50.224;10.126;2022-09-13T09:24:23;17.40;99.90
5164;DHT22;2601;50.224;10.126;2022-09-13T09:26:54;17.30;99.90
5164;DHT22;2601;50.224;10.126;2022-09-13T09:29:22;17.30;99.90
5164;DHT22;2601;50.224;10.126;2022-09-13T09:37:32;17.20;99.90
5164;DHT22;2601;50.224;10.126;2022-09-13T09:40:01;16.90;99.90
5164;DHT22;2601;50.224;10.126;2022-09-13T09:42:31;17.00;99.90
5164;DHT22;2601;50.224;10.126;2022-09-13T09:45:02;17.30;99.90
5164;DHT22;2601;50.224;10.126;2022-09-13T09:47:33;17.40;99.90
5164;DHT22;2601;50.224;10.126;2022-09-13T09:50:14;17.80;99.90
5164;DHT22;2601;50.224;10.126;2022-09-13T09:53:02;18.10;99.90
5164;DHT22;2601;50.224;10.126;2022-09-13T09:57:59;20.30;99.90
5164;DHT22;2601;50.224;10.126;2022-09-13T10:00:28;20.90;99.90
5164;DHT22;2601;50.224;10.126;2022-09-13T10:02:59;21.00;99.90
5164;DHT22;2601;50.224;10.126;2022-09-13T10:05:28;21.10;99.90
5164;DHT22;2601;50.224;10.126;2022-09-13T10:08:00;21.40;99.90
5164;DHT22;2601;50.224;10.126;2022-09-13T10:10:54;21.30;99.90
5164;DHT22;2601;50.224;10.126;2022-09-13T10:13:23;22.00;99.90
5164;DHT22;2601;50.224;10.126;2022-09-13T10:16:00;22.30;99.90
5164;DHT22;2601;50.224;10.126;2022-09-13T10:18:32;22.70;99.90
5164;DHT22;2601;50.224;10.126;2022-09-13T10:21:22;22.90;99.90
5164;DHT22;2601;50.224;10.126;2022-09-13T10:23:49;23.50;99.90
5164;DHT22;2601;50.224;10.126;2022-09-13T10:26:21;23.20;99.90
5164;DHT22;2601;50.224;10.126;2022-09-13T10:29:07;23.30;99.90
5164;DHT22;2601;50.224;10.126;2022-09-13T10:31:38;23.60;99.90
5164;DHT22;2601;50.224;10.126;2022-09-13T10:34:17;24.10;99.90
5164;DHT22;2601;50.224;10.126;2022-09-13T10:36:53;24.30;99.90
5164;DHT22;2601;50.224;10.126;2022-09-13T10:39:22;24.30;99.20
5164;DHT22;2601;50.224;10.126;2022-09-13T10:41:59;23.60;99.90
5164;DHT22;2601;50.224;10.126;2022-09-13T10:44:45;23.40;99.90
5164;DHT22;2601;50.224;10.126;2022-09-13T10:47:17;22.90;99.90
5164;DHT22;2601;50.224;10.126;2022-09-13T10:49:53;22.60;99.90
5164;DHT22;2601;50.224;10.126;2022-09-13T10:57:46;23.60;99.90
5164;DHT22;2601;50.224;10.126;2022-09-13T11:00:15;23.60;99.90
5164;DHT22;2601;50.224;10.126;2022-09-13T11:05:27;24.40;98.50
5164;DHT22;2601;50.224;10.126;2022-09-13T11:08:16;24.20;99.00
5164;DHT22;2601;50.224;10.126;2022-09-13T11:14:03;22.80;99.80
5164;DHT22;2601;50.224;10.126;2022-09-13T11:30:31;23.20;99.90
5164;DHT22;2601;50.224;10.126;2022-09-13T11:38:41;23.30;99.90
5164;DHT22;2601;50.224;10.126;2022-09-13T11:41:39;23.80;99.20
5164;DHT22;2601;50.224;10.126;2022-09-13T11:50:21;24.60;98.00
5164;DHT22;2601;50.224;10.126;2022-09-13T11:55:31;25.70;95.20
5164;DHT22;2601;50.224;10.126;2022-09-13T11:58:04;26.00;95.10
5164;DHT22;2601;50.224;10.126;2022-09-13T12:00:50;26.50;93.90
5164;DHT22;2601;50.224;10.126;2022-09-13T12:03:49;27.00;92.70
5164;DHT22;2601;50.224;10.126;2022-09-13T12:09:16;26.60;90.80
5164;DHT22;2601;50.224;10.126;2022-09-13T12:11:47;26.50;91.00
5164;DHT22;2601;50.224;10.126;2022-09-13T12:14:19;27.20;90.10
5164;DHT22;2601;50.224;10.126;2022-09-13T12:16:57;27.80;88.80
5164;DHT22;2601;50.224;10.126;2022-09-13T12:19:47;28.60;84.60
5164;DHT22;2601;50.224;10.126;2022-09-13T12:22:15;28.50;82.10
5164;DHT22;2601;50.224;10.126;2022-09-13T12:25:03;28.30;82.00
5164;DHT22;2601;50.224;10.126;2022-09-13T12:28:25;27.30;82.30
5164;DHT22;2601;50.224;10.126;2022-09-13T12:30:54;26.90;84.80
5164;DHT22;2601;50.224;10.126;2022-09-13T12:33:21;25.50;89.50
5164;DHT22;2601;50.224;10.126;2022-09-13T12:36:39;25.50;90.40
5164;DHT22;2601;50.224;10.126;2022-09-13T12:53:48;25.60;90.50
5164;DHT22;2601;50.224;10.126;2022-09-13T13:01:49;25.00;90.30
5164;DHT22;2601;50.224;10.126;2022-09-13T13:04:25;25.20;90.40
5164;DHT22;2601;50.224;10.126;2022-09-13T13:11:55;26.30;88.40
5164;DHT22;2601;50.224;10.126;2022-09-13T13:23:27;26.90;80.90
5164;DHT22;2601;50.224;10.126;2022-09-13T13:36:42;27.60;77.20
5164;DHT22;2601;50.224;10.126;2022-09-13T13:39:31;27.60;77.70
5164;DHT22;2601;50.224;10.126;2022-09-13T13:41:59;27.90;75.70
5164;DHT22;2601;50.224;10.126;2022-09-13T13:49:44;28.10;75.80
5164;DHT22;2601;50.224;10.126;2022-09-13T13:57:27;29.60;71.40
5164;DHT22;2601;50.224;10.126;2022-09-13T14:21:42;28.40;74.10
5164;DHT22;2601;50.224;10.126;2022-09-13T14:24:19;27.10;78.00
5164;DHT22;2601;50.224;10.126;2022-09-13T14:26:49;26.50;79.50
5164;DHT22;2601;50.224;10.126;2022-09-13T14:29:21;26.30;81.70
5164;DHT22;2601;50.224;10.126;2022-09-13T14:31:51;26.60;81.70
5164;DHT22;2601;50.224;10.126;2022-09-13T14:34:28;27.30;80.70
5164;DHT22;2601;50.224;10.126;2022-09-13T14:36:57;27.60;79.10
5164;DHT22;2601;50.224;10.126;2022-09-13T14:39:24;28.70;77.90
5164;DHT22;2601;50.224;10.126;2022-09-13T14:42:10;29.00;76.00
5164;DHT22;2601;50.224;10.126;2022-09-13T14:44:36;28.80;76.20
5164;DHT22;2601;50.224;10.126;2022-09-13T14:49:53;27.80;78.70
5164;DHT22;2601;50.224;10.126;2022-09-13T14:54:54;26.70;83.10
5164;DHT22;2601;50.224;10.126;2022-09-13T14:57:30;26.70;83.00
5164;DHT22;2601;50.224;10.126;2022-09-13T15:00:16;26.00;84.90
5164;DHT22;2601;50.224;10.126;2022-09-13T15:02:55;26.00;85.80
5164;DHT22;2601;50.224;10.126;2022-09-13T15:05:24;26.40;85.50
5164;DHT22;2601;50.224;10.126;2022-09-13T15:07:50;26.70;84.90
5164;DHT22;2601;50.224;10.126;2022-09-13T15:15:39;26.20;86.40
5164;DHT22;2601;50.224;10.126;2022-09-13T15:20:53;26.90;85.10
5164;DHT22;2601;50.224;10.126;2022-09-13T15:23:37;26.90;84.00
5164;DHT22;2601;50.224;10.126;2022-09-13T15:26:24;27.30;83.60
5164;DHT22;2601;50.224;10.126;2022-09-13T15:28:58;27.10;83.00
5164;DHT22;2601;50.224;10.126;2022-09-13T15:31:33;27.00;83.00
5164;DHT22;2601;50.224;10.126;2022-09-13T15:36:46;25.50;87.00
5164;DHT22;2601;50.224;10.126;2022-09-13T15:39:17;25.00;88.50
5164;DHT22;2601;50.224;10.126;2022-09-13T15:41:56;24.80;90.10
5164;DHT22;2601;50.224;10.126;2022-09-13T15:44:23;24.40;90.00
5164;DHT22;2601;50.224;10.126;2022-09-13T15:46:51;24.20;90.20
5164;DHT22;2601;50.224;10.126;2022-09-13T15:49:20;24.90;90.00
5164;DHT22;2601;50.224;10.126;2022-09-13T15:51:52;25.60;88.60
5164;DHT22;2601;50.224;10.126;2022-09-13T15:54:18;25.90;86.30
5164;DHT22;2601;50.224;10.126;2022-09-13T15:56:48;25.90;85.50
5164;DHT22;2601;50.224;10.126;2022-09-13T15:59:19;26.60;84.30
5164;DHT22;2601;50.224;10.126;2022-09-13T16:01:48;26.60;83.80
5164;DHT22;2601;50.224;10.126;2022-09-13T16:04:14;25.70;85.40
5164;DHT22;2601;50.224;10.126;2022-09-13T16:06:40;25.00;86.90
5164;DHT22;2601;50.224;10.126;2022-09-13T16:09:22;24.70;89.10
5164;DHT22;2601;50.224;10.126;2022-09-13T16:11:49;24.50;90.10
5164;DHT22;2601;50.224;10.126;2022-09-13T16:14:16;24.60;89.40
5164;DHT22;2601;50.224;10.126;2022-09-13T16:16:42;24.20;89.80
5164;DHT22;2601;50.224;10.126;2022-09-13T16:19:16;23.80;90.50
5164;DHT22;2601;50.224;10.126;2022-09-13T16:21:42;23.60;91.20
5164;DHT22;2601;50.224;10.126;2022-09-13T16:24:08;23.50;91.60
5164;DHT22;2601;50.224;10.126;2022-09-13T16:26:34;23.30;92.00
5164;DHT22;2601;50.224;10.126;2022-09-13T16:29:00;23.30;92.00
5164;DHT22;2601;50.224;10.126;2022-09-13T16:31:25;23.10;92.30
5164;DHT22;2601;50.224;10.126;2022-09-13T16:33:51;23.00;92.70
5164;DHT22;2601;50.224;10.126;2022-09-13T16:36:17;22.90;93.10
5164;DHT22;2601;50.224;10.126;2022-09-13T16:38:43;22.90;93.20
5164;DHT22;2601;50.224;10.126;2022-09-13T16:41:09;22.80;93.40
5164;DHT22;2601;50.224;10.126;2022-09-13T16:43:34;22.80;93.80
5164;DHT22;2601;50.224;10.126;2022-09-13T16:46:09;22.90;94.00
5164;DHT22;2601;50.224;10.126;2022-09-13T16:48:35;22.70;94.30
5164;DHT22;2601;50.224;10.126;2022-09-13T16:51:06;22.60;94.50
5164;DHT22;2601;50.224;10.126;2022-09-13T16:53:34;22.50;95.00
5164;DHT22;2601;50.224;10.126;2022-09-13T16:56:14;22.30;95.50
5164;DHT22;2601;50.224;10.126;2022-09-13T16:58:42;22.20;96.00
5164;DHT22;2601;50.224;10.126;2022-09-13T17:01:11;22.10;96.30
5164;DHT22;2601;50.224;10.126;2022-09-13T17:03:39;22.10;96.80
5164;DHT22;2601;50.224;10.126;2022-09-13T17:06:07;22.00;97.10
5164;DHT22;2601;50.224;10.126;2022-09-13T17:08:35;21.80;97.40
5164;DHT22;2601;50.224;10.126;2022-09-13T17:11:10;21.80;97.90
5164;DHT22;2601;50.224;10.126;2022-09-13T17:13:38;21.70;98.30
5164;DHT22;2601;50.224;10.126;2022-09-13T17:16:06;21.70;98.70
5164;DHT22;2601;50.224;10.126;2022-09-13T17:18:33;21.50;99.10
5164;DHT22;2601;50.224;10.126;2022-09-13T17:21:00;21.50;99.30
5164;DHT22;2601;50.224;10.126;2022-09-13T17:23:26;21.50;99.80
5164;DHT22;2601;50.224;10.126;2022-09-13T17:25:52;21.40;99.90
5164;DHT22;2601;50.224;10.126;2022-09-13T17:28:18;21.40;99.90
5164;DHT22;2601;50.224;10.126;2022-09-13T17:30:45;21.40;99.90
5164;DHT22;2601;50.224;10.126;2022-09-13T17:33:12;21.40;99.90
5164;DHT22;2601;50.224;10.126;2022-09-13T17:35:37;21.30;99.90
5164;DHT22;2601;50.224;10.126;2022-09-13T17:38:04;21.30;99.90
5164;DHT22;2601;50.224;10.126;2022-09-13T17:40:31;21.30;99.90
5164;DHT22;2601;50.224;10.126;2022-09-13T17:42:57;21.30;99.90
5164;DHT22;2601;50.224;10.126;2022-09-13T17:45:24;21.20;99.90
5164;DHT22;2601;50.224;10.126;2022-09-13T17:47:54;21.20;99.90
5164;DHT22;2601;50.224;10.126;2022-09-13T17:50:21;21.20;99.90
5164;DHT22;2601;50.224;10.126;2022-09-13T17:52:48;21.10;99.90
5164;DHT22;2601;50.224;10.126;2022-09-13T17:55:16;21.10;99.90
5164;DHT22;2601;50.224;10.126;2022-09-13T17:57:42;21.10;99.90
5164;DHT22;2601;50.224;10.126;2022-09-13T18:00:08;21.00;99.90
5164;DHT22;2601;50.224;10.126;2022-09-13T18:02:38;21.00;99.90
5164;DHT22;2601;50.224;10.126;2022-09-13T18:05:04;20.90;99.90
5164;DHT22;2601;50.224;10.126;2022-09-13T18:07:30;20.90;99.90
5164;DHT22;2601;50.224;10.126;2022-09-13T18:09:55;20.80;99.90
5164;DHT22;2601;50.224;10.126;2022-09-13T18:12:21;20.80;99.90
5164;DHT22;2601;50.224;10.126;2022-09-13T18:14:47;20.70;99.90
5164;DHT22;2601;50.224;10.126;2022-09-13T18:17:12;20.70;99.90
5164;DHT22;2601;50.224;10.126;2022-09-13T18:19:39;20.70;99.90
5164;DHT22;2601;50.224;10.126;2022-09-13T18:22:06;20.70;99.90
5164;DHT22;2601;50.224;10.126;2022-09-13T18:24:32;20.60;99.90
5164;DHT22;2601;50.224;10.126;2022-09-13T18:26:59;20.60;99.90
5164;DHT22;2601;50.224;10.126;2022-09-13T18:29:25;20.50;99.90
5164;DHT22;2601;50.224;10.126;2022-09-13T18:31:53;20.50;99.90
5164;DHT22;2601;50.224;10.126;2022-09-13T18:34:19;20.50;99.90
5164;DHT22;2601;50.224;10.126;2022-09-13T18:36:45;20.50;99.90
5164;DHT22;2601;50.224;10.126;2022-09-13T18:39:17;20.50;99.90
5164;DHT22;2601;50.224;10.126;2022-09-13T18:41:44;20.50;99.90
5164;DHT22;2601;50.224;10.126;2022-09-13T18:44:12;20.50;99.90
5164;DHT22;2601;50.224;10.126;2022-09-13T18:46:38;20.50;99.90
5164;DHT22;2601;50.224;10.126;2022-09-13T18:49:06;20.50;99.90
5164;DHT22;2601;50.224;10.126;2022-09-13T18:51:37;20.50;99.90
5164;DHT22;2601;50.224;10.126;2022-09-13T18:54:04;20.50;99.90
5164;DHT22;2601;50.224;10.126;2022-09-13T18:56:30;20.50;99.90
5164;DHT22;2601;50.224;10.126;2022-09-13T18:58:59;20.40;99.90
5164;DHT22;2601;50.224;10.126;2022-09-13T19:01:28;20.40;99.90
5164;DHT22;2601;50.224;10.126;2022-09-13T19:04:05;20.50;99.90
5164;DHT22;2601;50.224;10.126;2022-09-13T19:09:32;20.40;99.90
5164;DHT22;2601;50.224;10.126;2022-09-13T19:12:00;20.40;99.90
5164;DHT22;2601;50.224;10.126;2022-09-13T19:14:27;20.30;99.90
5164;DHT22;2601;50.224;10.126;2022-09-13T19:16:55;20.30;99.90
5164;DHT22;2601;50.224;10.126;2022-09-13T19:19:22;20.20;99.90
5164;DHT22;2601;50.224;10.126;2022-09-13T19:21:48;20.10;99.90
5164;DHT22;2601;50.224;10.126;2022-09-13T19:24:14;20.10;99.90
5164;DHT22;2601;50.224;10.126;2022-09-13T19:26:41;20.00;99.90
5164;DHT22;2601;50.224;10.126;2022-09-13T19:29:10;20.00;99.90
5164;DHT22;2601;50.224;10.126;2022-09-13T19:31:38;19.90;99.90